createdAt,value
2018-06-03T00:02:03.452Z,99.90
2018-06-03T00:04:30.956Z,99.90
2018-06-03T00:06:58.422Z,99.90
2018-06-03T00:09:25.912Z,99.90
2018-06-03T00:11:53.369Z,99.90
2018-06-03T00:14:20.864Z,99.90
2018-06-03T00:16:49.097Z,99.90
2018-06-03T00:19:16.559Z,99.90
2018-06-03T00:21:44.307Z,99.90
2018-06-03T00:24:11.781Z,99.90
2018-06-03T00:26:39.244Z,99.90
2018-06-03T00:29:06.874Z,99.90
2018-06-03T00:31:34.381Z,99.90
2018-06-03T00:34:01.853Z,99.90
2018-06-03T00:36:41.926Z,99.90
2018-06-03T00:39:09.397Z,99.90
2018-06-03T00:41:36.860Z,99.90
2018-06-03T00:44:04.453Z,99.90
2018-06-03T00:46:31.917Z,99.90
2018-06-03T00:48:59.382Z,99.90
2018-06-03T00:51:27.854Z,99.90
2018-06-03T00:53:55.324Z,99.90
2018-06-03T00:56:35.525Z,99.90
2018-06-03T00:59:02.997Z,99.90
2018-06-03T01:01:30.468Z,99.90
2018-06-03T01:03:58.143Z,99.90
2018-06-03T01:06:26.540Z,99.90
2018-06-03T01:08:54.029Z,99.90
2018-06-03T01:11:21.513Z,99.90
2018-06-03T01:13:48.987Z,99.90
2018-06-03T01:16:16.484Z,99.90
2018-06-03T01:18:43.958Z,99.90
2018-06-03T01:21:11.425Z,99.90
2018-06-03T01:23:38.900Z,99.90
2018-06-03T01:26:06.375Z,99.90
2018-06-03T01:28:34.608Z,99.90
2018-06-03T01:31:02.319Z,99.90
2018-06-03T01:33:30.548Z,99.90
2018-06-03T01:35:58.026Z,99.90
2018-06-03T01:38:26.350Z,99.90
2018-06-03T01:40:53.809Z,99.90
2018-06-03T01:43:21.277Z,99.90
2018-06-03T01:45:48.783Z,99.90
2018-06-03T01:48:16.247Z,99.90
2018-06-03T01:50:43.713Z,99.90
2018-06-03T01:53:12.113Z,99.90
2018-06-03T01:55:39.578Z,99.90
2018-06-03T01:58:07.036Z,99.90
2018-06-03T02:00:34.550Z,99.90
2018-06-03T02:03:02.098Z,99.90
2018-06-03T02:05:29.762Z,99.90
2018-06-03T02:07:57.373Z,99.90
2018-06-03T02:10:24.834Z,99.90
2018-06-03T02:12:52.316Z,99.90
2018-06-03T02:15:19.854Z,99.90
2018-06-03T02:17:47.317Z,99.90
2018-06-03T02:20:15.025Z,99.90
2018-06-03T02:22:43.250Z,99.90
2018-06-03T02:25:10.710Z,99.90
2018-06-03T02:27:38.184Z,99.90
2018-06-03T02:30:05.654Z,99.90
2018-06-03T02:32:33.117Z,99.90
2018-06-03T02:35:00.782Z,99.90
2018-06-03T02:37:28.246Z,99.90
2018-06-03T02:39:56.485Z,99.90
2018-06-03T02:42:23.977Z,99.90
2018-06-03T02:44:52.215Z,99.90
2018-06-03T02:47:19.693Z,99.90
2018-06-03T02:49:47.192Z,99.90
2018-06-03T02:52:14.656Z,99.90
2018-06-03T02:54:42.113Z,99.90
2018-06-03T02:57:09.818Z,99.90
2018-06-03T02:59:37.284Z,99.90
2018-06-03T03:02:04.838Z,99.90
2018-06-03T03:04:32.481Z,99.90
2018-06-03T03:06:59.952Z,99.90
2018-06-03T03:09:27.409Z,99.90
2018-06-03T03:11:55.076Z,99.90
2018-06-03T03:14:22.629Z,99.90
2018-06-03T03:16:50.098Z,99.90
2018-06-03T03:19:17.848Z,99.90
2018-06-03T03:21:45.314Z,99.90
2018-06-03T03:24:14.289Z,99.90
2018-06-03T03:26:41.929Z,99.90
2018-06-03T03:29:09.404Z,99.90
2018-06-03T03:31:36.886Z,99.90
2018-06-03T03:34:05.272Z,99.90
2018-06-03T03:36:33.499Z,99.90
2018-06-03T03:39:00.962Z,99.90
2018-06-03T03:41:28.649Z,99.90
2018-06-03T03:43:57.617Z,99.90
2018-06-03T03:46:25.094Z,99.90
2018-06-03T03:48:52.568Z,99.90
2018-06-03T03:51:20.804Z,99.90
2018-06-03T03:53:48.485Z,99.90
2018-06-03T03:56:16.032Z,99.90
2018-06-03T03:58:43.496Z,99.90
2018-06-03T04:01:11.133Z,99.90
2018-06-03T04:03:38.612Z,99.90
2018-06-03T04:06:06.074Z,99.90
2018-06-03T04:08:33.574Z,99.90
2018-06-03T04:11:01.793Z,99.90
2018-06-03T04:13:29.465Z,99.90
2018-06-03T04:15:56.938Z,99.90
2018-06-03T04:18:25.174Z,99.90
2018-06-03T04:20:52.804Z,99.90
2018-06-03T04:23:20.282Z,99.90
2018-06-03T04:25:47.746Z,99.90
2018-06-03T04:28:15.225Z,99.90
2018-06-03T04:30:42.693Z,99.90
2018-06-03T04:33:10.925Z,99.90
2018-06-03T04:35:38.632Z,99.90
2018-06-03T04:38:06.098Z,99.90
2018-06-03T04:40:34.328Z,99.90
2018-06-03T04:43:01.810Z,99.90
2018-06-03T04:45:29.315Z,99.90
2018-06-03T04:47:56.786Z,99.90
2018-06-03T04:50:24.410Z,99.90
2018-06-03T04:52:52.636Z,99.90
2018-06-03T04:55:20.100Z,99.90
2018-06-03T04:57:47.776Z,99.90
2018-06-03T05:00:15.252Z,99.90
2018-06-03T05:02:43.496Z,99.90
2018-06-03T05:05:10.977Z,99.90
2018-06-03T05:07:39.216Z,99.90
2018-06-03T05:10:06.690Z,99.90
2018-06-03T05:12:35.054Z,99.90
2018-06-03T05:15:02.520Z,99.90
2018-06-03T05:17:29.985Z,99.90
2018-06-03T05:19:57.471Z,99.90
2018-06-03T05:22:24.938Z,99.90
2018-06-03T05:24:52.413Z,99.90
2018-06-03T05:27:19.889Z,99.90
2018-06-03T05:29:47.355Z,99.90
2018-06-03T05:32:14.818Z,99.90
2018-06-03T05:34:42.405Z,99.90
2018-06-03T05:37:10.641Z,99.90
2018-06-03T05:39:38.113Z,99.90
2018-06-03T05:42:05.773Z,99.90
2018-06-03T05:44:34.011Z,99.90
2018-06-03T05:47:01.460Z,99.90
2018-06-03T05:49:29.167Z,99.90
2018-06-03T05:51:56.637Z,99.90
2018-06-03T05:54:24.885Z,99.90
2018-06-03T05:56:52.559Z,99.90
2018-06-03T05:59:20.025Z,99.90
2018-06-03T06:01:47.499Z,99.90
2018-06-03T06:04:15.736Z,99.90
2018-06-03T06:06:43.205Z,99.90
2018-06-03T06:09:10.865Z,99.90
2018-06-03T06:11:38.352Z,99.90
2018-06-03T06:14:06.584Z,99.90
2018-06-03T06:16:35.737Z,99.90
2018-06-03T06:19:03.224Z,99.90
2018-06-03T06:21:30.692Z,99.90
2018-06-03T06:23:58.364Z,99.90
2018-06-03T06:26:25.829Z,99.90
2018-06-03T06:28:54.068Z,99.90
2018-06-03T06:31:21.715Z,99.90
2018-06-03T06:33:49.221Z,99.90
2018-06-03T06:36:17.452Z,99.90
2018-06-03T06:38:44.952Z,99.90
2018-06-03T06:41:12.413Z,99.90
2018-06-03T06:43:40.657Z,99.90
2018-06-03T06:46:08.197Z,99.90
2018-06-03T06:48:35.669Z,99.90
2018-06-03T06:51:03.141Z,99.90
2018-06-03T06:53:30.630Z,99.90
2018-06-03T06:55:58.885Z,99.90
2018-06-03T06:58:26.349Z,99.90
2018-06-03T07:00:54.760Z,99.90
2018-06-03T07:03:22.221Z,99.90
2018-06-03T07:05:49.875Z,99.90
2018-06-03T07:08:17.393Z,99.90
2018-06-03T07:10:44.864Z,99.90
2018-06-03T07:13:13.164Z,99.90
2018-06-03T07:15:40.594Z,99.90
2018-06-03T07:18:08.052Z,99.90
2018-06-03T07:20:36.285Z,99.90
2018-06-03T07:23:03.781Z,99.90
2018-06-03T07:25:31.237Z,99.90
2018-06-03T07:27:59.505Z,99.90
2018-06-03T07:30:26.969Z,99.90
2018-06-03T07:32:54.645Z,99.90
2018-06-03T07:35:22.878Z,99.90
2018-06-03T07:37:50.345Z,99.90
2018-06-03T07:40:18.043Z,99.90
2018-06-03T07:42:46.269Z,99.90
2018-06-03T07:45:13.732Z,99.90
2018-06-03T07:47:41.429Z,99.90
2018-06-03T07:50:09.661Z,99.90
2018-06-03T07:52:37.129Z,99.90
2018-06-03T07:55:04.732Z,99.90
2018-06-03T07:57:32.956Z,99.90
2018-06-03T08:00:00.438Z,99.90
2018-06-03T08:02:27.930Z,99.90
2018-06-03T08:04:55.394Z,99.90
2018-06-03T08:07:22.866Z,99.90
2018-06-03T08:09:50.553Z,99.90
2018-06-03T08:12:18.018Z,99.90
2018-06-03T08:14:46.298Z,99.90
2018-06-03T08:17:13.793Z,99.90
2018-06-03T08:19:41.274Z,99.90
2018-06-03T08:22:08.788Z,99.90
2018-06-03T08:24:37.123Z,99.90
2018-06-03T08:27:05.973Z,99.90
2018-06-03T08:29:34.690Z,99.90
2018-06-03T08:32:02.157Z,99.90
2018-06-03T08:34:29.866Z,99.90
2018-06-03T08:36:57.363Z,99.90
2018-06-03T08:39:24.854Z,99.90
2018-06-03T08:41:52.328Z,99.90
2018-06-03T08:44:20.573Z,99.90
2018-06-03T08:46:48.037Z,99.90
2018-06-03T08:49:15.705Z,99.90
2018-06-03T08:51:43.170Z,99.90
2018-06-03T08:54:11.401Z,99.90
2018-06-03T08:56:39.097Z,99.90
2018-06-03T08:59:06.737Z,99.90
2018-06-03T09:01:34.311Z,99.90
2018-06-03T09:04:01.973Z,99.90
2018-06-03T09:06:29.452Z,99.90
2018-06-03T09:08:57.747Z,99.90
2018-06-03T09:11:25.426Z,99.90
2018-06-03T09:13:52.901Z,99.90
2018-06-03T09:16:20.371Z,99.90
2018-06-03T09:18:49.369Z,99.90
2018-06-03T09:21:16.828Z,99.90
2018-06-03T09:23:44.306Z,99.90
2018-06-03T09:26:12.581Z,99.90
2018-06-03T09:28:40.822Z,99.90
2018-06-03T09:31:08.288Z,99.90
2018-06-03T09:33:35.959Z,99.90
2018-06-03T09:36:03.424Z,99.90
2018-06-03T09:38:31.656Z,99.90
2018-06-03T09:40:59.325Z,99.90
2018-06-03T09:43:26.797Z,99.90
2018-06-03T09:45:54.291Z,99.90
2018-06-03T09:48:21.778Z,99.90
2018-06-03T09:50:49.261Z,99.90
2018-06-03T09:53:16.737Z,99.90
2018-06-03T09:55:44.212Z,99.90
2018-06-03T09:58:11.773Z,99.90
2018-06-03T10:00:39.238Z,99.90
2018-06-03T10:03:06.957Z,99.90
2018-06-03T10:05:35.208Z,99.90
2018-06-03T10:08:03.497Z,99.90
2018-06-03T10:10:31.172Z,99.90
2018-06-03T10:12:58.657Z,99.90
2018-06-03T10:15:26.879Z,98.60
2018-06-03T10:17:54.356Z,98.60
2018-06-03T10:20:21.838Z,98.90
2018-06-03T10:22:50.073Z,97.60
2018-06-03T10:25:17.595Z,97.60
2018-06-03T10:27:45.061Z,96.20
2018-06-03T10:30:12.593Z,96.00
2018-06-03T10:32:40.077Z,96.10
2018-06-03T10:35:07.560Z,97.20
2018-06-03T10:37:35.240Z,97.80
2018-06-03T10:40:02.732Z,96.90
2018-06-03T10:42:30.198Z,95.60
2018-06-03T10:45:26.438Z,95.40
2018-06-03T10:47:54.972Z,95.70
2018-06-03T10:50:23.397Z,93.40
2018-06-03T10:52:51.816Z,91.90
2018-06-03T10:55:20.212Z,90.30
2018-06-03T10:57:48.742Z,90.00
2018-06-03T11:00:17.369Z,90.00
2018-06-03T11:02:45.805Z,90.10
2018-06-03T11:05:14.841Z,91.00
2018-06-03T11:07:43.341Z,92.40
2018-06-03T11:10:11.746Z,92.40
2018-06-03T11:12:40.168Z,92.60
2018-06-03T11:15:08.652Z,92.60
2018-06-03T11:17:38.410Z,92.20
2018-06-03T11:20:06.900Z,91.10
2018-06-03T11:22:35.398Z,91.90
2018-06-03T11:25:04.348Z,92.60
2018-06-03T11:27:32.837Z,92.00
2018-06-03T11:30:01.277Z,93.10
2018-06-03T11:32:29.682Z,95.30
2018-06-03T11:34:58.183Z,96.90
2018-06-03T11:37:26.626Z,98.30
2018-06-03T11:39:55.045Z,98.90
2018-06-03T11:42:23.587Z,99.90
2018-06-03T11:44:52.021Z,99.90
2018-06-03T11:47:20.445Z,99.90
2018-06-03T11:49:48.845Z,99.90
2018-06-03T11:52:17.297Z,99.50
2018-06-03T11:59:34.334Z,99.30
2018-06-03T12:02:02.741Z,98.40
2018-06-03T12:04:31.154Z,99.20
2018-06-03T12:06:59.923Z,98.30
2018-06-03T12:09:28.417Z,98.70
2018-06-03T12:11:56.836Z,99.70
2018-06-03T12:14:25.401Z,99.80
2018-06-03T12:16:53.881Z,98.20
2018-06-03T12:19:22.281Z,96.30
2018-06-03T12:21:50.710Z,95.50
2018-06-03T12:24:19.268Z,93.40
2018-06-03T12:26:47.809Z,93.30
2018-06-03T12:29:16.274Z,93.10
2018-06-03T12:31:44.720Z,91.40
2018-06-03T12:34:13.175Z,91.10
2018-06-03T12:36:41.591Z,91.90
2018-06-03T12:39:10.242Z,91.10
2018-06-03T12:41:38.941Z,91.00
2018-06-03T12:44:07.385Z,91.70
2018-06-03T12:46:35.801Z,92.00
2018-06-03T12:49:04.301Z,92.50
2018-06-03T12:51:32.764Z,92.40
2018-06-03T12:54:01.252Z,92.10
2018-06-03T12:56:29.682Z,93.10
2018-06-03T12:58:58.081Z,92.80
2018-06-03T13:01:26.599Z,92.90
2018-06-03T13:03:55.021Z,93.20
2018-06-03T13:06:23.452Z,93.30
2018-06-03T13:08:52.637Z,94.60
2018-06-03T13:11:21.298Z,94.40
2018-06-03T13:13:49.721Z,95.90
2018-06-03T13:16:18.291Z,95.80
2018-06-03T13:18:46.717Z,96.80
2018-06-03T13:21:15.168Z,95.50
2018-06-03T13:23:43.640Z,95.20
2018-06-03T13:26:12.046Z,95.50
2018-06-03T13:28:40.457Z,95.50
2018-06-03T13:33:36.992Z,94.90
2018-06-03T13:36:05.833Z,93.80
2018-06-03T13:38:34.258Z,95.10
2018-06-03T13:41:02.809Z,95.60
2018-06-03T13:43:31.294Z,94.20
2018-06-03T13:45:59.681Z,94.20
2018-06-03T13:48:28.137Z,94.10
2018-06-03T13:50:56.524Z,93.80
2018-06-03T13:53:25.011Z,93.90
2018-06-03T13:55:53.436Z,94.60
2018-06-03T14:00:50.033Z,94.40
2018-06-03T14:03:18.450Z,94.70
2018-06-03T14:05:46.875Z,95.30
2018-06-03T14:08:15.302Z,95.40
2018-06-03T14:10:43.753Z,95.90
2018-06-03T14:13:12.196Z,96.40
2018-06-03T14:18:08.795Z,96.00
2018-06-03T14:20:37.223Z,96.20
2018-06-03T14:23:05.881Z,97.10
2018-06-03T14:25:34.291Z,96.70
2018-06-03T14:30:31.141Z,96.90
2018-06-03T14:32:59.565Z,96.30
2018-06-03T14:35:28.019Z,96.30
2018-06-03T14:37:56.669Z,96.40
2018-06-03T14:40:25.157Z,96.10
2018-06-03T14:42:53.577Z,96.40
2018-06-03T14:45:22.229Z,96.50
2018-06-03T14:47:50.639Z,97.80
2018-06-03T14:50:19.048Z,98.50
2018-06-03T14:52:47.767Z,98.70
2018-06-03T14:55:16.195Z,99.20
2018-06-03T14:57:44.631Z,99.40
2018-06-03T15:00:13.157Z,99.30
2018-06-03T15:02:41.570Z,99.50
2018-06-03T15:05:09.981Z,99.30
2018-06-03T15:07:38.686Z,99.20
2018-06-03T15:10:07.127Z,99.70
2018-06-03T15:12:35.541Z,98.90
2018-06-03T15:15:04.223Z,99.30
2018-06-03T15:17:32.760Z,99.80
2018-06-03T15:20:01.188Z,99.90
2018-06-03T15:22:29.652Z,99.90
2018-06-03T15:24:58.064Z,99.90
2018-06-03T15:27:26.466Z,99.70
2018-06-03T15:29:54.962Z,99.70
2018-06-03T15:32:23.398Z,97.70
2018-06-03T15:34:52.037Z,97.60
2018-06-03T15:37:20.510Z,96.30
2018-06-03T15:39:49.033Z,96.40
2018-06-03T15:42:17.512Z,97.80
2018-06-03T15:44:46.041Z,97.70
2018-06-03T15:47:14.490Z,98.10
2018-06-03T15:49:42.937Z,97.40
2018-06-03T15:52:11.397Z,97.30
2018-06-03T15:54:40.094Z,97.30
2018-06-03T15:57:08.645Z,96.60
2018-06-03T15:59:37.109Z,97.70
2018-06-03T16:02:06.348Z,98.00
2018-06-03T16:04:34.762Z,97.40
2018-06-03T16:07:03.231Z,97.00
2018-06-03T16:09:31.648Z,97.90
2018-06-03T16:12:00.045Z,98.00
2018-06-03T16:14:28.474Z,98.10
2018-06-03T16:19:25.149Z,99.50
2018-06-03T16:21:53.609Z,99.20
2018-06-03T16:26:50.165Z,98.70
2018-06-03T16:29:18.696Z,98.60
2018-06-03T16:31:47.144Z,98.50
2018-06-03T16:34:15.610Z,98.90
2018-06-03T16:36:44.237Z,99.90
2018-06-03T16:39:12.678Z,99.40
2018-06-03T16:41:41.241Z,99.30
2018-06-03T16:44:09.668Z,99.60
2018-06-03T16:46:38.127Z,99.30
2018-06-03T16:49:06.588Z,99.90
2018-06-03T16:51:34.989Z,99.20
2018-06-03T16:54:03.412Z,99.10
2018-06-03T16:56:31.792Z,99.00
2018-06-03T17:01:36.118Z,99.20
2018-06-03T17:04:04.546Z,99.30
2018-06-03T17:06:33.045Z,99.90
2018-06-03T17:09:01.490Z,99.90
2018-06-03T17:11:30.043Z,99.90
2018-06-03T17:13:58.506Z,99.70
2018-06-03T17:16:27.952Z,99.90
2018-06-03T17:18:57.048Z,99.90
2018-06-03T17:21:25.941Z,99.90
2018-06-03T17:23:55.117Z,99.90
2018-06-03T17:26:24.147Z,99.90
2018-06-03T17:28:53.499Z,99.90
2018-06-03T17:31:22.476Z,99.90
2018-06-03T17:33:51.406Z,99.90
2018-06-03T17:36:20.509Z,99.90
2018-06-03T17:38:49.403Z,99.90
2018-06-03T17:41:18.419Z,99.90
2018-06-03T17:43:47.535Z,99.90
2018-06-03T17:46:16.339Z,99.90
2018-06-03T17:48:45.325Z,99.90
2018-06-03T17:51:14.057Z,99.90
2018-06-03T17:53:43.282Z,99.90
2018-06-03T17:56:11.764Z,99.90
2018-06-03T17:58:40.619Z,99.90
2018-06-03T18:01:09.395Z,99.90
2018-06-03T18:03:38.191Z,99.90
2018-06-03T18:06:06.706Z,99.90
2018-06-03T18:08:35.337Z,99.90
2018-06-03T18:11:03.780Z,99.90
2018-06-03T18:13:32.177Z,99.90
2018-06-03T18:16:00.746Z,99.90
2018-06-03T18:18:29.555Z,99.90
2018-06-03T18:20:57.981Z,99.90
2018-06-03T18:23:26.462Z,99.90
2018-06-03T18:25:55.182Z,99.90
2018-06-03T18:28:23.619Z,99.90
2018-06-03T18:30:52.106Z,99.90
2018-06-03T18:33:20.802Z,99.90
2018-06-03T18:35:49.201Z,99.90
2018-06-03T18:38:17.915Z,99.90
2018-06-03T18:40:46.453Z,99.90
2018-06-03T18:43:14.893Z,99.90
2018-06-03T18:45:43.526Z,99.90
2018-06-03T18:48:11.923Z,99.90
2018-06-03T18:53:08.549Z,99.90
2018-06-03T18:55:36.993Z,99.90
2018-06-03T18:58:05.428Z,99.90
2018-06-03T19:03:02.355Z,99.90
2018-06-03T19:05:30.773Z,99.90
2018-06-03T19:07:59.292Z,99.90
2018-06-03T19:10:27.842Z,99.90
2018-06-03T19:12:56.281Z,99.90
2018-06-03T19:15:24.834Z,99.90
2018-06-03T19:17:53.337Z,99.90
2018-06-03T19:20:22.171Z,99.90
2018-06-03T19:22:50.649Z,99.90
2018-06-03T19:25:19.065Z,99.90
2018-06-03T19:27:47.693Z,99.90
2018-06-03T19:30:16.306Z,99.90
2018-06-03T19:32:44.737Z,99.90
2018-06-03T19:35:13.177Z,99.90
2018-06-03T19:37:41.996Z,99.90
2018-06-03T19:40:10.556Z,99.90
2018-06-03T19:42:38.952Z,99.90
2018-06-03T19:45:07.569Z,99.90
2018-06-03T19:47:35.986Z,99.90
2018-06-03T19:50:04.458Z,99.90
2018-06-03T19:52:32.929Z,99.90
2018-06-03T19:57:29.555Z,99.90
2018-06-03T19:59:58.034Z,99.90
2018-06-03T20:02:26.426Z,99.90
2018-06-03T20:04:55.177Z,99.90
2018-06-03T20:07:23.609Z,99.90
2018-06-03T20:09:51.997Z,99.90
2018-06-03T20:12:20.508Z,99.90
2018-06-03T20:14:48.967Z,99.90
2018-06-03T20:17:17.369Z,99.90
2018-06-03T20:19:45.789Z,99.90
2018-06-03T20:22:14.212Z,99.90
2018-06-03T20:24:42.703Z,99.90
2018-06-03T20:27:11.337Z,99.90
2018-06-03T20:32:08.127Z,99.90
2018-06-03T20:34:36.645Z,99.90
2018-06-03T20:37:05.045Z,99.90
2018-06-03T20:39:33.552Z,99.90
2018-06-03T20:42:02.070Z,99.90
2018-06-03T20:44:30.458Z,99.90
2018-06-03T20:46:59.033Z,99.90
2018-06-03T20:49:27.486Z,99.90
2018-06-03T20:51:55.885Z,99.90
2018-06-03T20:54:24.276Z,99.90
2018-06-03T20:56:52.968Z,99.90
2018-06-03T20:59:21.399Z,99.90
2018-06-03T21:01:49.800Z,99.90
2018-06-03T21:04:18.220Z,99.90
2018-06-03T21:06:46.746Z,99.90
2018-06-03T21:09:15.255Z,99.90
2018-06-03T21:11:43.856Z,99.90
2018-06-03T21:14:12.549Z,99.90
2018-06-03T21:16:41.060Z,99.90
2018-06-03T21:19:09.465Z,99.90
2018-06-03T21:21:38.033Z,99.90
2018-06-03T21:24:06.467Z,99.90
2018-06-03T21:26:34.884Z,99.90
2018-06-03T21:29:03.285Z,99.90
2018-06-03T21:31:31.909Z,99.90
2018-06-03T21:34:01.405Z,99.90
2018-06-03T21:36:29.816Z,99.90
2018-06-03T21:38:58.247Z,99.90
2018-06-03T21:41:26.717Z,99.90
2018-06-03T21:43:55.123Z,99.90
2018-06-03T21:46:23.544Z,99.90
2018-06-03T21:48:52.018Z,99.90
2018-06-03T21:51:20.425Z,99.90
2018-06-03T21:53:48.848Z,99.90
2018-06-03T21:56:18.251Z,99.90
2018-06-03T21:58:46.634Z,99.90
2018-06-03T22:03:43.458Z,99.90
2018-06-03T22:06:12.038Z,99.90
2018-06-03T22:08:40.767Z,99.90
2018-06-03T22:11:09.178Z,99.90
2018-06-03T22:13:37.560Z,99.90
2018-06-03T22:16:05.993Z,99.90
2018-06-03T22:18:34.452Z,99.90
2018-06-03T22:21:02.861Z,99.90
2018-06-03T22:23:31.524Z,99.90
2018-06-03T22:25:59.909Z,99.90
2018-06-03T22:28:28.361Z,99.90
2018-06-03T22:30:56.967Z,99.90
2018-06-03T22:33:25.451Z,99.90
2018-06-03T22:35:53.946Z,99.90
2018-06-03T22:38:22.560Z,99.90
2018-06-03T22:40:50.940Z,99.90
2018-06-03T22:43:19.404Z,99.90
2018-06-03T22:45:48.057Z,99.90
2018-06-03T22:48:16.450Z,99.90
2018-06-03T22:50:44.842Z,99.90
2018-06-03T22:53:13.489Z,99.90
2018-06-03T22:55:41.981Z,99.90
2018-06-03T22:58:10.404Z,99.90
2018-06-03T23:00:39.249Z,99.90
2018-06-03T23:03:12.995Z,99.90
2018-06-03T23:05:41.629Z,99.90
2018-06-03T23:08:10.009Z,99.90
2018-06-03T23:10:38.449Z,99.90
2018-06-03T23:13:07.218Z,99.90
2018-06-03T23:15:35.649Z,99.90
2018-06-03T23:18:04.057Z,99.90
2018-06-03T23:20:32.649Z,99.90
2018-06-03T23:23:01.045Z,99.90
2018-06-03T23:25:29.434Z,99.90
2018-06-03T23:27:58.006Z,99.90
2018-06-03T23:30:26.484Z,99.90
2018-06-03T23:32:54.858Z,99.90
2018-06-03T23:35:23.264Z,99.90
2018-06-03T23:37:51.742Z,99.90
2018-06-03T23:40:20.390Z,99.90
2018-06-03T23:42:48.789Z,99.90
2018-06-03T23:45:17.192Z,99.90
2018-06-03T23:47:45.987Z,99.90
2018-06-03T23:50:14.383Z,99.90
2018-06-03T23:52:42.735Z,99.90
2018-06-03T23:55:11.152Z,99.90
2018-06-03T23:57:39.650Z,99.90
